PST: 23:58 MST: 00:58 CST: 01:58 EST: 02:58 LDN: 07:58 UTC: 06:58
User Agent: CCBot/2.0 (http://commoncrawl.org/faq/)
IP Address: 54.81.139.235
Hostname: ec2-54-81-139-235.compute-1.amazonaws.com

METAR:
KBFI 220653Z 35003KT 10SM CLR 21/13 A2999 RMK AO2 SLP155 T02110128
KBFI 220553Z 00000KT 10SM CLR 22/13 A2999 RMK AO2 SLP156 T02220128 10267 20217 50001
KBFI 220453Z 00000KT 10SM CLR 22/13 A2999 RMK AO2 SLP156 T02220133
KBFI 220353Z 31004KT 10SM CLR 23/13 A3000 RMK AO2 SLP158 T02280133

TAF:
KBFI 220539Z 2206/2306 VRB03KT P6SM SKC
FM 222000 24006KT P6SM SKC
FM 222300 29006KT P6SM SCT250
FM 230500 VRB03KT P6SM SCT250

KBFI 212320Z 2200/2224 33006KT P6SM SKC
FM 220400 00000KT P6SM SKC
FM 221800 24006KT P6SM SCT250

KBFI 211720Z 2118/2218 35004KT P6SM SKC
FM 220400 VRB03KT P6SM SKC

KBFI 211503Z 2115/2212 VRB04KT P6SM FEW250
FM 211600 32006KT P6SM SKC
FM 220400 VRB03KT P6SM SKC

KBFI 211259Z 2113/2212 VRB03KT P6SM FEW010
FM 211600 32006KT P6SM SKC
FM 220400 VRB03KT P6SM SKC

KBFI 210521Z 2106/2206 VRB03KT P6SM SCT200
FM 211300 VRB03KT P6SM SCT008
FM 211600 32006KT P6SM SKC
FM 220400 VRB03KT P6SM SKC